createdAt,value
2018-12-16T00:00:04.715Z,9.00
2018-12-16T00:02:33.080Z,9.75
2018-12-16T00:05:01.323Z,11.88
2018-12-16T00:07:29.548Z,10.40
2018-12-16T00:09:57.797Z,11.53
2018-12-16T00:12:26.069Z,11.05
2018-12-16T00:14:54.357Z,10.72
2018-12-16T00:17:22.546Z,11.18
2018-12-16T00:19:50.734Z,10.30
2018-12-16T00:23:22.084Z,10.18
2018-12-16T00:25:50.317Z,10.03
2018-12-16T00:28:18.629Z,11.85
2018-12-16T00:30:46.863Z,12.37
2018-12-16T00:33:15.228Z,10.88
2018-12-16T00:35:43.408Z,11.57
2018-12-16T00:38:11.790Z,11.03
2018-12-16T00:40:40.084Z,10.82
2018-12-16T00:43:08.359Z,11.40
2018-12-16T00:45:36.560Z,8.40
2018-12-16T00:48:04.750Z,9.18
2018-12-16T00:50:32.696Z,9.05
2018-12-16T00:53:00.893Z,9.75
2018-12-16T00:55:28.872Z,8.10
2018-12-16T00:57:57.112Z,9.73
2018-12-16T01:00:25.384Z,7.92
2018-12-16T01:02:53.679Z,9.35
2018-12-16T01:05:21.901Z,9.30
2018-12-16T01:07:50.227Z,10.00
2018-12-16T01:10:18.414Z,9.83
2018-12-16T01:12:46.652Z,8.43
2018-12-16T01:15:14.956Z,8.65
2018-12-16T01:17:43.156Z,12.82
2018-12-16T01:20:11.336Z,11.97
2018-12-16T01:22:43.381Z,9.10
2018-12-16T01:25:09.757Z,8.50
2018-12-16T01:27:37.993Z,8.08
2018-12-16T01:30:06.212Z,8.23
2018-12-16T01:32:34.400Z,7.85
2018-12-16T01:35:02.593Z,6.85
2018-12-16T01:37:30.837Z,7.70
2018-12-16T01:39:59.009Z,9.05
2018-12-16T01:42:27.218Z,7.87
2018-12-16T01:44:55.476Z,9.43
2018-12-16T01:47:23.728Z,7.17
2018-12-16T01:49:51.954Z,6.80
2018-12-16T01:52:19.901Z,6.37
2018-12-16T01:54:47.949Z,7.05
2018-12-16T01:57:15.876Z,7.35
2018-12-16T01:59:44.064Z,8.00
2018-12-16T02:02:12.235Z,9.05
2018-12-16T02:04:40.580Z,8.90
2018-12-16T02:07:08.868Z,9.23
2018-12-16T02:09:37.157Z,7.37
2018-12-16T02:12:05.366Z,7.28
2018-12-16T02:14:33.557Z,7.42
2018-12-16T02:17:01.744Z,7.90
2018-12-16T02:19:29.985Z,7.47
2018-12-16T02:21:58.248Z,7.22
2018-12-16T02:24:26.452Z,7.42
2018-12-16T02:26:54.729Z,6.90
2018-12-16T02:29:22.954Z,7.20
2018-12-16T02:31:51.140Z,6.35
2018-12-16T02:34:19.425Z,6.10
2018-12-16T02:36:47.653Z,8.90
2018-12-16T02:39:15.944Z,7.58
2018-12-16T02:41:44.180Z,6.70
2018-12-16T02:44:12.359Z,6.80
2018-12-16T02:46:40.592Z,6.65
2018-12-16T02:49:08.804Z,5.92
2018-12-16T02:51:37.005Z,4.97
2018-12-16T02:54:05.010Z,6.37
2018-12-16T02:56:33.086Z,5.45
2018-12-16T02:59:01.306Z,7.62
2018-12-16T03:01:29.586Z,6.45
2018-12-16T03:03:57.804Z,7.08
2018-12-16T03:06:26.166Z,6.00
2018-12-16T03:08:54.384Z,6.80
2018-12-16T03:11:22.611Z,7.00
2018-12-16T03:13:50.884Z,6.53
2018-12-16T03:16:19.089Z,7.22
2018-12-16T03:18:47.309Z,6.58
2018-12-16T03:21:15.568Z,6.95
2018-12-16T03:23:43.842Z,6.75
2018-12-16T03:26:12.045Z,6.70
2018-12-16T03:28:40.435Z,6.70
2018-12-16T03:31:08.741Z,7.58
2018-12-16T03:33:37.632Z,6.60
2018-12-16T03:36:05.836Z,7.45
2018-12-16T03:38:34.145Z,6.90
2018-12-16T03:41:02.393Z,13.15
2018-12-16T03:43:30.632Z,8.55
2018-12-16T03:45:58.906Z,7.35
2018-12-16T03:48:27.155Z,6.47
2018-12-16T03:50:55.356Z,5.60
2018-12-16T03:53:23.331Z,5.97
2018-12-16T03:55:51.371Z,6.78
2018-12-16T03:58:19.405Z,6.30
2018-12-16T04:00:47.678Z,6.58
2018-12-16T04:03:16.060Z,6.00
2018-12-16T04:05:44.369Z,6.90
2018-12-16T04:08:12.736Z,6.62
2018-12-16T04:10:40.998Z,7.17
2018-12-16T04:13:09.364Z,5.72
2018-12-16T04:15:37.594Z,7.20
2018-12-16T04:18:05.867Z,6.10
2018-12-16T04:20:34.127Z,6.75
2018-12-16T04:23:02.393Z,6.05
2018-12-16T04:25:30.663Z,6.08
2018-12-16T04:27:58.981Z,5.80
2018-12-16T04:30:27.201Z,6.45
2018-12-16T04:32:55.520Z,6.20
2018-12-16T04:35:23.872Z,6.47
2018-12-16T04:37:52.080Z,7.08
2018-12-16T04:40:20.440Z,6.15
2018-12-16T04:42:48.724Z,7.58
2018-12-16T04:45:16.933Z,7.40
2018-12-16T04:47:45.244Z,7.00
2018-12-16T04:50:13.522Z,6.15
2018-12-16T04:52:41.802Z,5.35
2018-12-16T04:55:09.839Z,5.15
2018-12-16T04:57:37.824Z,6.72
2018-12-16T05:00:05.786Z,5.95
2018-12-16T05:02:34.157Z,7.95
2018-12-16T05:05:02.637Z,6.40
2018-12-16T05:07:30.977Z,6.20
2018-12-16T05:10:09.402Z,7.17
2018-12-16T05:12:37.689Z,6.45
2018-12-16T05:15:05.933Z,6.20
2018-12-16T05:17:34.175Z,6.85
2018-12-16T05:20:02.380Z,6.12
2018-12-16T05:22:30.592Z,5.40
2018-12-16T05:24:58.858Z,6.70
2018-12-16T05:27:27.074Z,5.90
2018-12-16T05:29:55.396Z,6.85
2018-12-16T05:32:23.657Z,7.17
2018-12-16T05:34:51.969Z,5.97
2018-12-16T05:37:20.190Z,6.72
2018-12-16T05:39:48.456Z,7.30
2018-12-16T05:42:16.732Z,5.90
2018-12-16T05:44:45.056Z,6.25
2018-12-16T05:47:13.320Z,6.35
2018-12-16T05:49:41.704Z,7.28
2018-12-16T05:52:09.983Z,5.80
2018-12-16T05:54:38.225Z,5.97
2018-12-16T05:57:06.481Z,5.53
2018-12-16T05:59:34.421Z,5.90
2018-12-16T06:02:02.453Z,5.50
2018-12-16T06:04:30.696Z,6.92
2018-12-16T06:06:58.914Z,5.60
2018-12-16T06:09:27.141Z,6.95
2018-12-16T06:11:55.496Z,6.55
2018-12-16T06:14:23.693Z,4.65
2018-12-16T06:16:51.877Z,6.08
2018-12-16T06:19:20.172Z,5.78
2018-12-16T06:21:48.441Z,6.87
2018-12-16T06:24:16.637Z,6.33
2018-12-16T06:26:44.825Z,7.67
2018-12-16T06:29:13.060Z,11.33
2018-12-16T06:31:41.357Z,7.00
2018-12-16T06:34:09.544Z,7.17
2018-12-16T06:36:44.357Z,6.60
2018-12-16T06:39:12.600Z,6.83
2018-12-16T06:41:40.831Z,6.42
2018-12-16T06:44:09.012Z,6.37
2018-12-16T06:46:37.232Z,6.35
2018-12-16T06:49:05.496Z,5.72
2018-12-16T06:51:33.692Z,5.55
2018-12-16T06:54:02.589Z,5.15
2018-12-16T06:56:31.117Z,5.35
2018-12-16T06:58:59.133Z,6.03
2018-12-16T07:01:27.325Z,6.42
2018-12-16T07:03:55.603Z,6.03
2018-12-16T07:06:23.801Z,6.47
2018-12-16T07:08:51.987Z,6.65
2018-12-16T07:11:20.180Z,7.05
2018-12-16T07:13:48.389Z,6.83
2018-12-16T07:16:16.713Z,6.90
2018-12-16T07:18:44.935Z,9.20
2018-12-16T07:21:13.263Z,9.73
2018-12-16T07:23:41.491Z,8.20
2018-12-16T07:26:16.185Z,10.55
2018-12-16T07:28:44.528Z,11.08
2018-12-16T07:31:12.750Z,10.93
2018-12-16T07:33:41.091Z,10.95
2018-12-16T07:36:09.382Z,8.20
2018-12-16T07:38:37.739Z,8.75
2018-12-16T07:41:06.092Z,8.10
2018-12-16T07:43:34.355Z,7.90
2018-12-16T07:46:02.576Z,7.55
2018-12-16T07:48:31.053Z,9.20
2018-12-16T07:50:59.404Z,7.03
2018-12-16T07:53:27.796Z,8.25
2018-12-16T07:55:56.000Z,7.30
2018-12-16T07:58:23.980Z,6.80
2018-12-16T08:00:51.952Z,7.15
2018-12-16T08:03:19.907Z,7.83
2018-12-16T08:05:48.130Z,7.67
2018-12-16T08:08:16.393Z,7.53
2018-12-16T08:10:44.605Z,8.93
2018-12-16T08:13:12.878Z,8.98
2018-12-16T08:15:41.120Z,9.45
2018-12-16T08:18:09.300Z,12.60
2018-12-16T08:20:37.489Z,18.40
2018-12-16T08:23:05.687Z,36.65
2018-12-16T08:25:33.955Z,12.98
2018-12-16T08:28:02.136Z,18.70
2018-12-16T08:30:30.337Z,8.50
2018-12-16T08:32:58.530Z,13.30
2018-12-16T08:35:26.756Z,11.93
2018-12-16T08:37:54.989Z,10.35
2018-12-16T08:40:23.184Z,10.95
2018-12-16T08:42:51.374Z,11.93
2018-12-16T08:45:19.558Z,9.05
2018-12-16T08:47:47.773Z,9.58
2018-12-16T08:50:16.675Z,11.40
2018-12-16T08:52:45.105Z,7.80
2018-12-16T08:55:13.028Z,6.95
2018-12-16T08:57:41.222Z,8.45
2018-12-16T09:00:09.332Z,6.53
2018-12-16T09:02:37.573Z,13.00
2018-12-16T09:05:05.817Z,11.95
2018-12-16T09:07:37.193Z,10.32
2018-12-16T09:10:04.956Z,8.73
2018-12-16T09:12:33.150Z,7.65
2018-12-16T09:15:01.374Z,13.00
2018-12-16T09:17:29.599Z,14.23
2018-12-16T09:19:57.784Z,9.60
2018-12-16T09:22:25.987Z,13.35
2018-12-16T09:24:54.298Z,16.40
2018-12-16T09:27:22.596Z,10.75
2018-12-16T09:29:50.775Z,17.48
2018-12-16T09:32:19.065Z,11.12
2018-12-16T09:34:47.262Z,12.88
2018-12-16T09:37:15.459Z,10.23
2018-12-16T09:39:43.708Z,9.88
2018-12-16T09:42:11.956Z,8.33
2018-12-16T09:44:40.479Z,9.80
2018-12-16T09:47:08.760Z,11.03
2018-12-16T09:49:37.052Z,11.08
2018-12-16T09:52:05.235Z,11.43
2018-12-16T09:54:33.467Z,12.53
2018-12-16T09:57:01.643Z,15.38
2018-12-16T09:59:29.599Z,9.43
2018-12-16T10:01:57.552Z,9.15
2018-12-16T10:04:25.747Z,10.45
2018-12-16T10:06:54.052Z,10.45
2018-12-16T10:09:22.320Z,11.75
2018-12-16T10:11:50.507Z,11.10
2018-12-16T10:14:18.811Z,10.93
2018-12-16T10:16:47.037Z,9.33
2018-12-16T10:19:21.788Z,9.30
2018-12-16T10:21:50.120Z,9.88
2018-12-16T10:24:18.517Z,10.43
2018-12-16T10:26:46.819Z,17.55
2018-12-16T10:29:15.136Z,12.95
2018-12-16T10:31:43.360Z,14.70
2018-12-16T10:34:11.617Z,13.95
2018-12-16T10:36:39.845Z,12.37
2018-12-16T10:39:08.235Z,15.65
2018-12-16T10:41:36.598Z,19.02
2018-12-16T10:44:04.968Z,16.10
2018-12-16T10:46:33.238Z,16.70
2018-12-16T10:49:04.756Z,13.08
2018-12-16T10:51:31.674Z,10.53
2018-12-16T10:54:00.096Z,12.95
2018-12-16T10:56:28.329Z,13.30
2018-12-16T10:58:56.554Z,13.60
2018-12-16T11:01:28.740Z,12.15
2018-12-16T11:03:56.941Z,11.55
2018-12-16T11:06:25.284Z,11.40
2018-12-16T11:08:53.607Z,13.03
2018-12-16T11:11:21.936Z,14.78
2018-12-16T11:13:50.230Z,16.42
2018-12-16T11:16:18.461Z,16.42
2018-12-16T11:18:46.773Z,17.25
2018-12-16T11:21:15.010Z,18.85
2018-12-16T11:23:43.325Z,21.35
2018-12-16T11:26:12.445Z,21.37
2018-12-16T11:28:40.726Z,28.65
2018-12-16T11:31:08.987Z,24.77
2018-12-16T11:33:37.198Z,22.10
2018-12-16T11:36:05.436Z,26.50
2018-12-16T11:38:33.692Z,20.55
2018-12-16T11:41:01.920Z,17.25
2018-12-16T11:43:30.147Z,19.30
2018-12-16T11:45:58.415Z,26.45
2018-12-16T11:48:26.668Z,30.00
2018-12-16T11:50:54.869Z,32.05
2018-12-16T11:53:23.128Z,21.82
2018-12-16T11:55:51.476Z,16.90
2018-12-16T11:58:19.689Z,15.30
2018-12-16T12:00:47.913Z,12.37
2018-12-16T12:03:15.902Z,7.43
2018-12-16T12:05:44.188Z,5.50
2018-12-16T12:08:12.212Z,5.00
2018-12-16T12:10:40.275Z,3.60
2018-12-16T12:13:08.543Z,3.43
2018-12-16T12:15:36.741Z,4.00
2018-12-16T12:18:05.023Z,3.90
2018-12-16T12:20:33.280Z,3.20
2018-12-16T12:23:01.650Z,2.63
2018-12-16T12:25:31.393Z,3.53
2018-12-16T12:27:59.824Z,3.23
2018-12-16T12:30:28.095Z,3.50
2018-12-16T12:32:56.397Z,3.30
2018-12-16T12:35:24.656Z,8.73
2018-12-16T12:37:52.932Z,4.43
2018-12-16T12:40:21.136Z,4.40
2018-12-16T12:42:49.397Z,13.53
2018-12-16T12:45:18.319Z,5.47
2018-12-16T12:47:46.517Z,5.60
2018-12-16T12:50:14.852Z,6.50
2018-12-16T12:52:43.089Z,4.37
2018-12-16T12:55:11.438Z,4.13
2018-12-16T13:04:39.177Z,4.70
2018-12-16T13:07:08.015Z,4.30
2018-12-16T13:09:36.816Z,3.53
2018-12-16T13:12:05.782Z,2.13
2018-12-16T13:14:35.868Z,2.47
2018-12-16T13:17:04.542Z,1.93
2018-12-16T13:22:19.188Z,2.00
2018-12-16T13:24:58.856Z,1.70
2018-12-16T13:27:27.307Z,1.60
2018-12-16T13:29:55.543Z,1.50
2018-12-16T13:32:23.790Z,3.00
2018-12-16T13:34:51.980Z,2.90
2018-12-16T13:37:20.217Z,1.87
2018-12-16T13:39:48.445Z,2.10
2018-12-16T13:42:16.706Z,1.70
2018-12-16T13:44:44.918Z,2.10
2018-12-16T13:47:13.203Z,2.00
2018-12-16T13:49:41.441Z,2.20
2018-12-16T13:52:09.648Z,8.47
2018-12-16T13:54:37.891Z,8.70
2018-12-16T13:57:06.180Z,29.97
2018-12-16T13:59:34.389Z,12.30
2018-12-16T14:02:02.648Z,7.67
2018-12-16T14:05:34.112Z,5.03
2018-12-16T14:08:02.369Z,4.07
2018-12-16T14:10:30.664Z,4.00
2018-12-16T14:12:58.888Z,3.10
2018-12-16T14:15:27.173Z,10.23
2018-12-16T14:17:55.392Z,11.60
2018-12-16T14:20:23.653Z,12.17
2018-12-16T14:22:51.921Z,14.20
2018-12-16T14:25:20.252Z,14.00
2018-12-16T14:27:48.512Z,32.40
2018-12-16T14:30:16.770Z,36.43
2018-12-16T14:32:44.968Z,32.03
2018-12-16T14:35:13.250Z,32.73
2018-12-16T14:37:41.613Z,33.73
2018-12-16T14:40:10.402Z,16.60
2018-12-16T14:42:38.724Z,16.07
2018-12-16T14:45:08.572Z,15.27
2018-12-16T14:47:36.876Z,15.37
2018-12-16T14:50:06.861Z,7.70
2018-12-16T14:52:35.083Z,7.03
2018-12-16T14:55:03.485Z,6.83
2018-12-16T14:57:31.725Z,5.50
2018-12-16T15:00:00.013Z,11.43
2018-12-16T15:02:28.471Z,6.30
2018-12-16T15:04:56.704Z,6.23
2018-12-16T15:07:24.952Z,10.03
2018-12-16T15:09:53.336Z,7.17
2018-12-16T15:12:21.660Z,7.47
2018-12-16T15:14:50.086Z,7.50
2018-12-16T15:17:18.364Z,9.03
2018-12-16T15:19:46.777Z,6.10
2018-12-16T15:22:15.048Z,6.07
2018-12-16T15:24:43.264Z,5.50
2018-12-16T15:27:11.557Z,7.47
2018-12-16T15:29:39.926Z,10.10
2018-12-16T15:32:08.286Z,6.90
2018-12-16T15:34:36.333Z,6.80
2018-12-16T15:37:05.456Z,6.27
2018-12-16T15:39:33.741Z,6.97
2018-12-16T15:42:01.979Z,8.30
2018-12-16T15:44:30.247Z,11.00
2018-12-16T15:46:58.536Z,12.33
2018-12-16T15:49:27.290Z,19.37
2018-12-16T15:51:55.592Z,20.87
2018-12-16T15:54:23.945Z,27.33
2018-12-16T15:56:52.161Z,42.50
2018-12-16T15:59:20.497Z,24.87
2018-12-16T16:01:48.724Z,22.10
2018-12-16T16:04:17.005Z,24.07
2018-12-16T16:06:45.263Z,32.47
2018-12-16T16:09:13.539Z,18.98
2018-12-16T16:11:41.775Z,16.17
2018-12-16T16:14:10.068Z,31.55
2018-12-16T16:16:38.341Z,24.65
2018-12-16T16:19:06.607Z,20.25
2018-12-16T16:21:34.885Z,26.30
2018-12-16T16:24:03.254Z,26.20
2018-12-16T16:26:31.601Z,17.20
2018-12-16T16:28:59.860Z,15.00
2018-12-16T16:31:28.125Z,16.73
2018-12-16T16:33:56.389Z,14.63
2018-12-16T16:36:24.431Z,17.23
2018-12-16T16:38:52.557Z,18.23
2018-12-16T16:41:20.960Z,18.85
2018-12-16T16:43:49.206Z,19.62
2018-12-16T16:46:17.458Z,21.42
2018-12-16T16:48:45.682Z,21.45
2018-12-16T16:51:14.008Z,21.48
2018-12-16T16:53:42.499Z,19.90
2018-12-16T16:56:10.782Z,29.67
2018-12-16T16:58:39.034Z,24.72
2018-12-16T17:01:07.321Z,22.05
2018-12-16T17:03:35.595Z,19.95
2018-12-16T17:06:03.902Z,19.95
2018-12-16T17:08:32.136Z,22.02
2018-12-16T17:11:00.741Z,17.90
2018-12-16T17:13:29.096Z,18.17
2018-12-16T17:15:57.441Z,18.65
2018-12-16T17:18:25.764Z,19.80
2018-12-16T17:20:54.101Z,19.42
2018-12-16T17:23:22.455Z,20.17
2018-12-16T17:25:50.729Z,26.37
2018-12-16T17:28:18.960Z,24.32
2018-12-16T17:30:47.291Z,23.15
2018-12-16T17:33:15.603Z,31.77
2018-12-16T17:35:43.662Z,28.90
2018-12-16T17:38:11.684Z,36.70
2018-12-16T17:40:39.731Z,34.35
2018-12-16T17:43:08.024Z,43.50
2018-12-16T17:45:36.280Z,72.27
2018-12-16T17:48:04.565Z,57.35
2018-12-16T17:50:32.788Z,46.40
2018-12-16T17:53:01.120Z,41.63
2018-12-16T17:55:29.446Z,35.98
2018-12-16T17:57:57.722Z,35.00
2018-12-16T18:00:26.334Z,34.85
2018-12-16T18:02:54.664Z,32.78
2018-12-16T18:05:22.874Z,34.48
2018-12-16T18:07:51.228Z,34.63
2018-12-16T18:10:19.461Z,32.10
2018-12-16T18:12:47.720Z,34.88
2018-12-16T18:15:16.009Z,36.88
2018-12-16T18:17:44.204Z,36.17
2018-12-16T18:20:12.472Z,37.20
2018-12-16T18:22:40.732Z,36.42
2018-12-16T18:25:09.001Z,33.33
2018-12-16T18:27:37.321Z,31.93
2018-12-16T18:30:06.804Z,25.25
2018-12-16T18:32:35.015Z,19.73
2018-12-16T18:35:03.023Z,24.57
2018-12-16T18:37:31.118Z,33.95
2018-12-16T18:39:59.391Z,19.02
2018-12-16T18:42:27.665Z,22.17
2018-12-16T18:44:55.932Z,30.37
2018-12-16T18:47:24.224Z,35.80
2018-12-16T18:49:52.540Z,29.10
2018-12-16T18:52:20.821Z,27.10
2018-12-16T18:54:49.021Z,23.27
2018-12-16T18:57:17.356Z,18.25
2018-12-16T19:04:38.243Z,23.30
2018-12-16T19:07:07.592Z,23.38
2018-12-16T19:09:35.812Z,24.87
2018-12-16T19:12:04.165Z,27.35
2018-12-16T19:14:33.803Z,25.90
2018-12-16T19:17:02.160Z,24.00
2018-12-16T19:19:30.401Z,25.02
2018-12-16T19:21:58.624Z,24.18
2018-12-16T19:24:27.988Z,26.42
2018-12-16T19:26:58.327Z,22.35
2018-12-16T19:29:26.603Z,19.35
2018-12-16T19:31:54.905Z,19.67
2018-12-16T19:34:23.192Z,20.37
2018-12-16T19:36:51.277Z,19.87
2018-12-16T19:39:19.335Z,22.77
2018-12-16T19:41:47.367Z,23.52
2018-12-16T19:44:15.618Z,24.12
2018-12-16T19:46:43.861Z,25.02
2018-12-16T19:49:12.166Z,22.40
2018-12-16T19:51:40.397Z,26.35
2018-12-16T19:54:08.719Z,23.83
2018-12-16T19:56:37.037Z,22.87
2018-12-16T19:59:05.556Z,22.42
2018-12-16T20:01:33.808Z,23.95
2018-12-16T20:04:19.520Z,24.98
2018-12-16T20:06:48.417Z,27.65
2018-12-16T20:09:16.698Z,28.45
2018-12-16T20:11:44.908Z,27.70
2018-12-16T20:14:13.268Z,50.63
2018-12-16T20:16:41.472Z,38.95
2018-12-16T20:19:09.739Z,36.20
2018-12-16T20:21:38.064Z,40.98
2018-12-16T20:24:06.317Z,69.67
2018-12-16T20:26:34.648Z,51.08
2018-12-16T20:29:02.885Z,50.28
2018-12-16T20:31:31.149Z,36.65
2018-12-16T20:33:59.381Z,32.80
2018-12-16T20:36:29.174Z,32.10
2018-12-16T20:38:57.621Z,30.37
2018-12-16T20:41:25.916Z,30.35
2018-12-16T20:43:54.177Z,33.67
2018-12-16T20:46:22.154Z,35.20
2018-12-16T20:48:50.220Z,33.38
2018-12-16T20:51:18.445Z,29.80
2018-12-16T20:53:46.796Z,26.73
2018-12-16T20:56:15.085Z,26.60
2018-12-16T20:58:43.571Z,27.60
2018-12-16T21:01:11.822Z,26.87
2018-12-16T21:03:40.044Z,26.65
2018-12-16T21:06:08.353Z,28.25
2018-12-16T21:08:36.646Z,29.72
2018-12-16T21:11:10.253Z,23.98
2018-12-16T21:13:44.010Z,20.43
2018-12-16T21:16:17.780Z,24.15
2018-12-16T21:18:46.104Z,24.05
2018-12-16T21:21:14.335Z,24.92
2018-12-16T21:23:42.612Z,28.62
2018-12-16T21:26:10.844Z,26.50
2018-12-16T21:28:39.149Z,24.72
2018-12-16T21:31:07.384Z,24.32
2018-12-16T21:33:35.685Z,22.82
2018-12-16T21:36:03.931Z,22.80
2018-12-16T21:38:32.146Z,22.90
2018-12-16T21:41:00.358Z,20.48
2018-12-16T21:43:28.623Z,20.75
2018-12-16T21:45:56.929Z,21.77
2018-12-16T21:48:25.252Z,20.00
2018-12-16T21:50:53.471Z,19.82
2018-12-16T21:53:21.744Z,20.12
2018-12-16T21:55:50.013Z,18.87
2018-12-16T21:58:18.068Z,21.00
2018-12-16T22:00:46.098Z,20.25
2018-12-16T22:03:14.132Z,22.00
2018-12-16T22:05:42.435Z,20.48
2018-12-16T22:08:10.755Z,24.30
2018-12-16T22:10:39.023Z,24.65
2018-12-16T22:13:07.261Z,24.12
2018-12-16T22:15:35.472Z,23.92
2018-12-16T22:18:03.696Z,20.55
2018-12-16T22:20:31.919Z,23.25
2018-12-16T22:23:00.126Z,23.40
2018-12-16T22:25:28.357Z,27.50
2018-12-16T22:27:56.661Z,25.05
2018-12-16T22:30:24.988Z,29.65
2018-12-16T22:32:53.353Z,21.35
2018-12-16T22:35:21.640Z,21.48
2018-12-16T22:37:49.991Z,21.90
2018-12-16T22:40:18.455Z,14.00
2018-12-16T22:42:46.766Z,17.98
2018-12-16T22:45:15.144Z,14.30
2018-12-16T22:47:43.467Z,17.23
2018-12-16T22:50:11.783Z,16.35
2018-12-16T22:52:40.167Z,14.80
2018-12-16T22:55:08.595Z,15.98
2018-12-16T22:57:36.918Z,15.88
2018-12-16T23:00:05.336Z,13.38
2018-12-16T23:02:33.366Z,14.68
2018-12-16T23:05:01.749Z,17.25
2018-12-16T23:07:34.680Z,17.10
2018-12-16T23:10:03.079Z,18.57
2018-12-16T23:12:34.080Z,20.27
2018-12-16T23:15:02.433Z,22.87
2018-12-16T23:17:30.709Z,23.98
2018-12-16T23:20:04.510Z,23.20
2018-12-16T23:22:32.865Z,23.57
2018-12-16T23:25:01.416Z,24.30
2018-12-16T23:27:29.675Z,20.48
2018-12-16T23:29:58.002Z,23.92
2018-12-16T23:32:26.306Z,25.08
2018-12-16T23:34:54.717Z,28.52
2018-12-16T23:37:23.082Z,24.87
2018-12-16T23:39:51.460Z,23.65
2018-12-16T23:42:19.836Z,26.68
2018-12-16T23:44:48.124Z,30.45
2018-12-16T23:47:16.388Z,27.60
2018-12-16T23:49:44.707Z,21.97
2018-12-16T23:52:13.084Z,22.22
2018-12-16T23:54:41.395Z,23.52
2018-12-16T23:57:09.809Z,20.25
2018-12-16T23:59:38.166Z,20.70
